sensor_id;sensor_type;location;lat;lon;timestamp;P1;durP1;ratioP1;P2;durP2;ratioP2
54121;SDS011;40029;58.708;50.190;2023-11-21T00:02:48;4.25;;;2.00;;
54121;SDS011;40029;58.708;50.190;2023-11-21T00:05:19;5.82;;;2.00;;
54121;SDS011;40029;58.708;50.190;2023-11-21T00:07:54;3.08;;;1.60;;
54121;SDS011;40029;58.708;50.190;2023-11-21T00:10:25;4.63;;;1.55;;
54121;SDS011;40029;58.708;50.190;2023-11-21T00:12:57;4.32;;;1.60;;
54121;SDS011;40029;58.708;50.190;2023-11-21T00:15:46;6.18;;;2.55;;
54121;SDS011;40029;58.708;50.190;2023-11-21T00:18:18;2.35;;;1.48;;
54121;SDS011;40029;58.708;50.190;2023-11-21T00:20:49;2.05;;;1.50;;
54121;SDS011;40029;58.708;50.190;2023-11-21T00:23:20;6.93;;;2.33;;
54121;SDS011;40029;58.708;50.190;2023-11-21T00:25:51;2.90;;;1.70;;
54121;SDS011;40029;58.708;50.190;2023-11-21T00:28:41;3.38;;;1.30;;
54121;SDS011;40029;58.708;50.190;2023-11-21T00:31:13;3.95;;;1.30;;
54121;SDS011;40029;58.708;50.190;2023-11-21T00:34:02;4.07;;;1.35;;
54121;SDS011;40029;58.708;50.190;2023-11-21T00:36:36;4.50;;;1.85;;
54121;SDS011;40029;58.708;50.190;2023-11-21T00:39:07;4.53;;;1.48;;
54121;SDS011;40029;58.708;50.190;2023-11-21T00:41:39;3.92;;;1.50;;
54121;SDS011;40029;58.708;50.190;2023-11-21T00:44:10;4.38;;;1.50;;
54121;SDS011;40029;58.708;50.190;2023-11-21T00:46:41;4.00;;;1.92;;
54121;SDS011;40029;58.708;50.190;2023-11-21T00:49:12;3.90;;;1.80;;
54121;SDS011;40029;58.708;50.190;2023-11-21T00:51:44;2.85;;;1.48;;
54121;SDS011;40029;58.708;50.190;2023-11-21T00:54:15;4.80;;;2.35;;
54121;SDS011;40029;58.708;50.190;2023-11-21T00:56:47;3.42;;;1.73;;
54121;SDS011;40029;58.708;50.190;2023-11-21T00:59:18;6.57;;;2.42;;
54121;SDS011;40029;58.708;50.190;2023-11-21T01:01:50;3.20;;;1.58;;
54121;SDS011;40029;58.708;50.190;2023-11-21T01:04:21;9.15;;;2.25;;
54121;SDS011;40029;58.708;50.190;2023-11-21T01:07:11;4.88;;;1.75;;
54121;SDS011;40029;58.708;50.190;2023-11-21T01:09:42;3.40;;;2.22;;
54121;SDS011;40029;58.708;50.190;2023-11-21T01:12:15;6.82;;;2.40;;
54121;SDS011;40029;58.708;50.190;2023-11-21T01:14:48;4.68;;;2.10;;
54121;SDS011;40029;58.708;50.190;2023-11-21T01:17:19;4.75;;;2.45;;
54121;SDS011;40029;58.708;50.190;2023-11-21T01:19:53;6.63;;;1.95;;
54121;SDS011;40029;58.708;50.190;2023-11-21T01:22:42;5.75;;;2.60;;
54121;SDS011;40029;58.708;50.190;2023-11-21T01:25:13;8.93;;;2.40;;
54121;SDS011;40029;58.708;50.190;2023-11-21T01:27:44;4.45;;;1.90;;
54121;SDS011;40029;58.708;50.190;2023-11-21T01:30:16;4.47;;;2.47;;
54121;SDS011;40029;58.708;50.190;2023-11-21T01:32:47;4.95;;;2.70;;
54121;SDS011;40029;58.708;50.190;2023-11-21T01:35:18;3.92;;;1.80;;
54121;SDS011;40029;58.708;50.190;2023-11-21T01:37:50;3.03;;;1.48;;
54121;SDS011;40029;58.708;50.190;2023-11-21T01:40:22;4.43;;;2.28;;
54121;SDS011;40029;58.708;50.190;2023-11-21T01:42:55;10.75;;;2.22;;
54121;SDS011;40029;58.708;50.190;2023-11-21T01:45:45;5.15;;;2.35;;
54121;SDS011;40029;58.708;50.190;2023-11-21T01:48:16;6.70;;;1.95;;
54121;SDS011;40029;58.708;50.190;2023-11-21T01:50:47;9.77;;;4.03;;
54121;SDS011;40029;58.708;50.190;2023-11-21T01:53:19;6.70;;;2.17;;
54121;SDS011;40029;58.708;50.190;2023-11-21T01:55:51;5.65;;;2.13;;
54121;SDS011;40029;58.708;50.190;2023-11-21T01:58:22;4.63;;;2.47;;
54121;SDS011;40029;58.708;50.190;2023-11-21T02:01:12;4.25;;;2.42;;
54121;SDS011;40029;58.708;50.190;2023-11-21T02:03:45;5.72;;;2.33;;
54121;SDS011;40029;58.708;50.190;2023-11-21T02:06:16;6.45;;;2.60;;
54121;SDS011;40029;58.708;50.190;2023-11-21T02:08:48;5.40;;;2.50;;
54121;SDS011;40029;58.708;50.190;2023-11-21T02:11:19;5.85;;;2.28;;
54121;SDS011;40029;58.708;50.190;2023-11-21T02:13:51;5.63;;;2.38;;
54121;SDS011;40029;58.708;50.190;2023-11-21T02:16:24;8.35;;;2.55;;
54121;SDS011;40029;58.708;50.190;2023-11-21T02:18:56;9.90;;;3.28;;
54121;SDS011;40029;58.708;50.190;2023-11-21T02:21:27;7.65;;;3.30;;
54121;SDS011;40029;58.708;50.190;2023-11-21T02:23:59;5.80;;;2.30;;
54121;SDS011;40029;58.708;50.190;2023-11-21T02:26:31;9.35;;;3.13;;
54121;SDS011;40029;58.708;50.190;2023-11-21T02:29:02;12.93;;;3.15;;
54121;SDS011;40029;58.708;50.190;2023-11-21T02:31:53;4.90;;;2.28;;
54121;SDS011;40029;58.708;50.190;2023-11-21T02:34:25;7.95;;;2.53;;
54121;SDS011;40029;58.708;50.190;2023-11-21T02:37:15;8.23;;;2.58;;
54121;SDS011;40029;58.708;50.190;2023-11-21T02:39:46;15.10;;;3.03;;
54121;SDS011;40029;58.708;50.190;2023-11-21T02:42:18;5.32;;;2.25;;
54121;SDS011;40029;58.708;50.190;2023-11-21T02:44:49;13.35;;;3.45;;
54121;SDS011;40029;58.708;50.190;2023-11-21T02:47:20;9.35;;;3.15;;
54121;SDS011;40029;58.708;50.190;2023-11-21T02:49:52;5.93;;;2.60;;
54121;SDS011;40029;58.708;50.190;2023-11-21T02:52:41;8.05;;;2.90;;
54121;SDS011;40029;58.708;50.190;2023-11-21T02:55:12;6.28;;;2.80;;
54121;SDS011;40029;58.708;50.190;2023-11-21T02:57:44;7.40;;;2.88;;
54121;SDS011;40029;58.708;50.190;2023-11-21T03:00:15;7.13;;;2.15;;
54121;SDS011;40029;58.708;50.190;2023-11-21T03:02:47;9.30;;;2.33;;
54121;SDS011;40029;58.708;50.190;2023-11-21T03:05:18;6.20;;;2.63;;
54121;SDS011;40029;58.708;50.190;2023-11-21T03:07:50;6.78;;;2.53;;
54121;SDS011;40029;58.708;50.190;2023-11-21T03:10:21;4.95;;;2.47;;
54121;SDS011;40029;58.708;50.190;2023-11-21T03:12:52;7.88;;;2.95;;
54121;SDS011;40029;58.708;50.190;2023-11-21T03:15:23;10.95;;;2.78;;
54121;SDS011;40029;58.708;50.190;2023-11-21T03:17:54;4.53;;;2.63;;
54121;SDS011;40029;58.708;50.190;2023-11-21T03:20:25;11.43;;;3.67;;
54121;SDS011;40029;58.708;50.190;2023-11-21T03:22:56;9.73;;;4.05;;
54121;SDS011;40029;58.708;50.190;2023-11-21T03:25:27;8.75;;;3.00;;
54121;SDS011;40029;58.708;50.190;2023-11-21T03:27:59;9.18;;;3.67;;
54121;SDS011;40029;58.708;50.190;2023-11-21T03:30:30;7.07;;;2.78;;
54121;SDS011;40029;58.708;50.190;2023-11-21T03:33:02;6.47;;;2.97;;
54121;SDS011;40029;58.708;50.190;2023-11-21T03:35:33;12.30;;;4.13;;
54121;SDS011;40029;58.708;50.190;2023-11-21T03:38:05;7.72;;;3.55;;
54121;SDS011;40029;58.708;50.190;2023-11-21T03:40:36;11.73;;;4.60;;
54121;SDS011;40029;58.708;50.190;2023-11-21T03:43:07;9.27;;;4.05;;
54121;SDS011;40029;58.708;50.190;2023-11-21T03:45:38;10.55;;;3.20;;
54121;SDS011;40029;58.708;50.190;2023-11-21T03:48:12;8.80;;;3.60;;
54121;SDS011;40029;58.708;50.190;2023-11-21T03:50:43;7.20;;;3.17;;
54121;SDS011;40029;58.708;50.190;2023-11-21T03:53:14;7.55;;;3.20;;
54121;SDS011;40029;58.708;50.190;2023-11-21T03:55:45;11.82;;;3.90;;
54121;SDS011;40029;58.708;50.190;2023-11-21T03:58:16;5.45;;;3.13;;
54121;SDS011;40029;58.708;50.190;2023-11-21T04:00:48;5.95;;;2.83;;
54121;SDS011;40029;58.708;50.190;2023-11-21T04:03:22;6.75;;;3.03;;
54121;SDS011;40029;58.708;50.190;2023-11-21T04:05:53;7.13;;;2.45;;
54121;SDS011;40029;58.708;50.190;2023-11-21T04:08:24;6.30;;;2.80;;
54121;SDS011;40029;58.708;50.190;2023-11-21T04:10:56;4.85;;;2.58;;
54121;SDS011;40029;58.708;50.190;2023-11-21T04:13:27;9.85;;;2.55;;
54121;SDS011;40029;58.708;50.190;2023-11-21T04:15:58;6.03;;;2.50;;
54121;SDS011;40029;58.708;50.190;2023-11-21T04:18:29;8.35;;;3.35;;
54121;SDS011;40029;58.708;50.190;2023-11-21T04:21:00;8.52;;;3.65;;
54121;SDS011;40029;58.708;50.190;2023-11-21T04:23:31;8.90;;;3.28;;
54121;SDS011;40029;58.708;50.190;2023-11-21T04:26:03;9.18;;;3.75;;
54121;SDS011;40029;58.708;50.190;2023-11-21T04:28:34;6.53;;;3.55;;
54121;SDS011;40029;58.708;50.190;2023-11-21T04:31:05;4.80;;;2.40;;
54121;SDS011;40029;58.708;50.190;2023-11-21T04:33:37;11.02;;;2.58;;
54121;SDS011;40029;58.708;50.190;2023-11-21T04:36:09;7.13;;;3.05;;
54121;SDS011;40029;58.708;50.190;2023-11-21T04:38:59;7.15;;;2.58;;
54121;SDS011;40029;58.708;50.190;2023-11-21T04:41:31;6.93;;;2.67;;
54121;SDS011;40029;58.708;50.190;2023-11-21T04:44:02;10.18;;;3.65;;
54121;SDS011;40029;58.708;50.190;2023-11-21T04:46:33;4.07;;;2.13;;
54121;SDS011;40029;58.708;50.190;2023-11-21T04:49:22;5.88;;;2.40;;
54121;SDS011;40029;58.708;50.190;2023-11-21T04:51:54;3.80;;;2.05;;
54121;SDS011;40029;58.708;50.190;2023-11-21T04:54:25;5.90;;;1.92;;
54121;SDS011;40029;58.708;50.190;2023-11-21T04:56:56;4.30;;;2.67;;
54121;SDS011;40029;58.708;50.190;2023-11-21T04:59:27;7.70;;;1.70;;
54121;SDS011;40029;58.708;50.190;2023-11-21T05:02:17;7.25;;;2.25;;
54121;SDS011;40029;58.708;50.190;2023-11-21T05:04:49;5.25;;;1.92;;
54121;SDS011;40029;58.708;50.190;2023-11-21T05:07:20;5.28;;;2.17;;
54121;SDS011;40029;58.708;50.190;2023-11-21T05:09:51;3.38;;;2.05;;
54121;SDS011;40029;58.708;50.190;2023-11-21T05:12:23;6.68;;;2.58;;
54121;SDS011;40029;58.708;50.190;2023-11-21T05:14:55;5.22;;;2.58;;
54121;SDS011;40029;58.708;50.190;2023-11-21T05:17:26;8.18;;;3.45;;
54121;SDS011;40029;58.708;50.190;2023-11-21T05:19:57;9.25;;;2.20;;
54121;SDS011;40029;58.708;50.190;2023-11-21T05:22:28;5.13;;;2.58;;
54121;SDS011;40029;58.708;50.190;2023-11-21T05:25:00;3.72;;;2.13;;
54121;SDS011;40029;58.708;50.190;2023-11-21T05:27:34;6.03;;;2.35;;
54121;SDS011;40029;58.708;50.190;2023-11-21T05:30:05;4.63;;;2.25;;
54121;SDS011;40029;58.708;50.190;2023-11-21T05:32:40;6.50;;;2.03;;
54121;SDS011;40029;58.708;50.190;2023-11-21T05:35:14;4.72;;;2.00;;
54121;SDS011;40029;58.708;50.190;2023-11-21T05:37:48;5.80;;;2.10;;
54121;SDS011;40029;58.708;50.190;2023-11-21T05:40:38;3.60;;;1.77;;
54121;SDS011;40029;58.708;50.190;2023-11-21T05:43:09;3.08;;;2.10;;
54121;SDS011;40029;58.708;50.190;2023-11-21T05:45:40;6.68;;;2.30;;
54121;SDS011;40029;58.708;50.190;2023-11-21T05:48:11;6.53;;;2.40;;
54121;SDS011;40029;58.708;50.190;2023-11-21T05:50:43;8.90;;;2.63;;
54121;SDS011;40029;58.708;50.190;2023-11-21T05:53:32;5.30;;;2.33;;
54121;SDS011;40029;58.708;50.190;2023-11-21T05:56:03;4.15;;;2.30;;
54121;SDS011;40029;58.708;50.190;2023-11-21T05:58:35;3.50;;;1.95;;
54121;SDS011;40029;58.708;50.190;2023-11-21T06:01:06;3.88;;;2.00;;
54121;SDS011;40029;58.708;50.190;2023-11-21T06:03:39;5.10;;;2.33;;
54121;SDS011;40029;58.708;50.190;2023-11-21T06:06:10;7.80;;;2.30;;
54121;SDS011;40029;58.708;50.190;2023-11-21T06:08:41;4.40;;;1.20;;
54121;SDS011;40029;58.708;50.190;2023-11-21T06:11:13;5.30;;;2.03;;
54121;SDS011;40029;58.708;50.190;2023-11-21T06:13:44;3.58;;;1.52;;
54121;SDS011;40029;58.708;50.190;2023-11-21T06:16:15;6.65;;;1.85;;
54121;SDS011;40029;58.708;50.190;2023-11-21T06:18:49;4.53;;;1.90;;
54121;SDS011;40029;58.708;50.190;2023-11-21T06:21:20;3.90;;;1.20;;
54121;SDS011;40029;58.708;50.190;2023-11-21T06:23:51;4.18;;;1.35;;
54121;SDS011;40029;58.708;50.190;2023-11-21T06:26:41;3.58;;;1.63;;
54121;SDS011;40029;58.708;50.190;2023-11-21T06:29:13;3.45;;;1.55;;
54121;SDS011;40029;58.708;50.190;2023-11-21T06:32:02;4.25;;;2.00;;
54121;SDS011;40029;58.708;50.190;2023-11-21T06:34:35;4.07;;;2.03;;
54121;SDS011;40029;58.708;50.190;2023-11-21T06:37:06;5.35;;;1.83;;
54121;SDS011;40029;58.708;50.190;2023-11-21T06:39:37;7.38;;;2.35;;
54121;SDS011;40029;58.708;50.190;2023-11-21T06:42:09;5.15;;;2.10;;
54121;SDS011;40029;58.708;50.190;2023-11-21T06:44:41;5.10;;;2.00;;
54121;SDS011;40029;58.708;50.190;2023-11-21T06:47:12;6.82;;;2.92;;
54121;SDS011;40029;58.708;50.190;2023-11-21T06:49:43;5.47;;;2.45;;
54121;SDS011;40029;58.708;50.190;2023-11-21T06:52:14;9.00;;;2.67;;
54121;SDS011;40029;58.708;50.190;2023-11-21T06:54:46;3.08;;;1.58;;
54121;SDS011;40029;58.708;50.190;2023-11-21T06:57:20;3.55;;;2.05;;
54121;SDS011;40029;58.708;50.190;2023-11-21T06:59:53;6.53;;;1.80;;
54121;SDS011;40029;58.708;50.190;2023-11-21T07:02:24;3.65;;;1.90;;
54121;SDS011;40029;58.708;50.190;2023-11-21T07:04:55;4.43;;;2.15;;
54121;SDS011;40029;58.708;50.190;2023-11-21T07:07:27;3.47;;;1.63;;
54121;SDS011;40029;58.708;50.190;2023-11-21T07:09:58;2.97;;;1.55;;
54121;SDS011;40029;58.708;50.190;2023-11-21T07:12:33;3.53;;;1.85;;
54121;SDS011;40029;58.708;50.190;2023-11-21T07:15:06;5.22;;;1.77;;
54121;SDS011;40029;58.708;50.190;2023-11-21T07:17:58;4.40;;;1.70;;
54121;SDS011;40029;58.708;50.190;2023-11-21T07:20:29;5.90;;;1.80;;
54121;SDS011;40029;58.708;50.190;2023-11-21T07:23:01;2.92;;;1.63;;
54121;SDS011;40029;58.708;50.190;2023-11-21T07:25:50;5.70;;;2.10;;
54121;SDS011;40029;58.708;50.190;2023-11-21T07:28:21;4.68;;;1.83;;
54121;SDS011;40029;58.708;50.190;2023-11-21T07:30:52;2.75;;;1.60;;
54121;SDS011;40029;58.708;50.190;2023-11-21T07:33:23;4.85;;;1.90;;
54121;SDS011;40029;58.708;50.190;2023-11-21T07:35:54;3.40;;;1.90;;
54121;SDS011;40029;58.708;50.190;2023-11-21T07:38:26;3.42;;;1.80;;
54121;SDS011;40029;58.708;50.190;2023-11-21T07:40:58;5.88;;;2.17;;
54121;SDS011;40029;58.708;50.190;2023-11-21T07:43:31;15.00;;;2.05;;
54121;SDS011;40029;58.708;50.190;2023-11-21T07:46:05;6.18;;;3.13;;
54121;SDS011;40029;58.708;50.190;2023-11-21T07:48:55;9.45;;;2.60;;
54121;SDS011;40029;58.708;50.190;2023-11-21T07:51:45;5.78;;;2.63;;
54121;SDS011;40029;58.708;50.190;2023-11-21T07:54:16;8.98;;;3.33;;
54121;SDS011;40029;58.708;50.190;2023-11-21T07:57:05;9.38;;;3.15;;
54121;SDS011;40029;58.708;50.190;2023-11-21T07:59:37;9.20;;;2.55;;
54121;SDS011;40029;58.708;50.190;2023-11-21T08:02:08;6.35;;;2.40;;
54121;SDS011;40029;58.708;50.190;2023-11-21T08:04:39;11.25;;;3.35;;
54121;SDS011;40029;58.708;50.190;2023-11-21T08:07:10;12.93;;;3.20;;
54121;SDS011;40029;58.708;50.190;2023-11-21T08:09:41;5.50;;;1.90;;
54121;SDS011;40029;58.708;50.190;2023-11-21T08:12:12;4.25;;;1.60;;
54121;SDS011;40029;58.708;50.190;2023-11-21T08:15:04;3.95;;;2.00;;
54121;SDS011;40029;58.708;50.190;2023-11-21T08:17:36;3.33;;;1.77;;
54121;SDS011;40029;58.708;50.190;2023-11-21T08:20:07;4.05;;;1.65;;
54121;SDS011;40029;58.708;50.190;2023-11-21T08:22:41;5.13;;;2.08;;
54121;SDS011;40029;58.708;50.190;2023-11-21T08:25:13;2.97;;;1.92;;
54121;SDS011;40029;58.708;50.190;2023-11-21T08:27:44;4.18;;;1.55;;
54121;SDS011;40029;58.708;50.190;2023-11-21T08:30:15;3.25;;;1.65;;
54121;SDS011;40029;58.708;50.190;2023-11-21T08:33:05;2.28;;;1.20;;
54121;SDS011;40029;58.708;50.190;2023-11-21T08:35:37;8.02;;;1.50;;
54121;SDS011;40029;58.708;50.190;2023-11-21T08:38:08;2.45;;;1.33;;
54121;SDS011;40029;58.708;50.190;2023-11-21T08:40:40;1.67;;;1.15;;
54121;SDS011;40029;58.708;50.190;2023-11-21T08:43:11;3.40;;;1.20;;
54121;SDS011;40029;58.708;50.190;2023-11-21T08:45:44;2.97;;;1.48;;
54121;SDS011;40029;58.708;50.190;2023-11-21T08:48:15;4.00;;;1.25;;
54121;SDS011;40029;58.708;50.190;2023-11-21T08:50:46;1.85;;;1.42;;
54121;SDS011;40029;58.708;50.190;2023-11-21T08:53:17;2.08;;;0.98;;
54121;SDS011;40029;58.708;50.190;2023-11-21T08:55:48;2.95;;;1.42;;
54121;SDS011;40029;58.708;50.190;2023-11-21T08:58:20;2.58;;;1.70;;
54121;SDS011;40029;58.708;50.190;2023-11-21T09:00:52;5.15;;;1.38;;
54121;SDS011;40029;58.708;50.190;2023-11-21T09:03:41;4.15;;;2.00;;
54121;SDS011;40029;58.708;50.190;2023-11-21T09:06:14;2.80;;;1.00;;
54121;SDS011;40029;58.708;50.190;2023-11-21T09:08:45;6.15;;;1.75;;
54121;SDS011;40029;58.708;50.190;2023-11-21T09:11:16;3.42;;;1.60;;
54121;SDS011;40029;58.708;50.190;2023-11-21T09:13:48;6.82;;;2.40;;
54121;SDS011;40029;58.708;50.190;2023-11-21T09:16:19;4.50;;;1.80;;
54121;SDS011;40029;58.708;50.190;2023-11-21T09:18:50;3.08;;;2.00;;
54121;SDS011;40029;58.708;50.190;2023-11-21T09:21:21;1.90;;;1.13;;
54121;SDS011;40029;58.708;50.190;2023-11-21T09:23:52;5.28;;;1.52;;
54121;SDS011;40029;58.708;50.190;2023-11-21T09:26:24;3.55;;;1.58;;
54121;SDS011;40029;58.708;50.190;2023-11-21T09:28:55;2.63;;;1.52;;
54121;SDS011;40029;58.708;50.190;2023-11-21T09:31:27;5.78;;;2.30;;
54121;SDS011;40029;58.708;50.190;2023-11-21T09:33:58;2.65;;;1.40;;
54121;SDS011;40029;58.708;50.190;2023-11-21T09:36:29;3.13;;;1.70;;
54121;SDS011;40029;58.708;50.190;2023-11-21T09:39:01;2.03;;;1.10;;
54121;SDS011;40029;58.708;50.190;2023-11-21T09:44:41;6.25;;;1.20;;
54121;SDS011;40029;58.708;50.190;2023-11-21T09:47:18;4.00;;;1.27;;
54121;SDS011;40029;58.708;50.190;2023-11-21T09:49:51;4.30;;;1.65;;
54121;SDS011;40029;58.708;50.190;2023-11-21T09:55:45;3.47;;;1.50;;
54121;SDS011;40029;58.708;50.190;2023-11-21T09:58:20;4.93;;;1.85;;
54121;SDS011;40029;58.708;50.190;2023-11-21T10:00:55;3.13;;;1.30;;
54121;SDS011;40029;58.708;50.190;2023-11-21T10:03:30;2.97;;;1.27;;
54121;SDS011;40029;58.708;50.190;2023-11-21T10:06:20;3.88;;;1.67;;
54121;SDS011;40029;58.708;50.190;2023-11-21T10:09:10;5.15;;;1.48;;
54121;SDS011;40029;58.708;50.190;2023-11-21T10:11:43;5.50;;;1.75;;
54121;SDS011;40029;58.708;50.190;2023-11-21T10:14:14;4.50;;;1.80;;
54121;SDS011;40029;58.708;50.190;2023-11-21T10:16:49;1.50;;;1.20;;
54121;SDS011;40029;58.708;50.190;2023-11-21T10:19:21;3.45;;;1.50;;
54121;SDS011;40029;58.708;50.190;2023-11-21T10:21:54;4.28;;;1.48;;
54121;SDS011;40029;58.708;50.190;2023-11-21T10:24:28;2.80;;;1.88;;
54121;SDS011;40029;58.708;50.190;2023-11-21T10:26:59;6.93;;;1.33;;
54121;SDS011;40029;58.708;50.190;2023-11-21T10:29:33;4.53;;;1.38;;
54121;SDS011;40029;58.708;50.190;2023-11-21T10:32:06;4.93;;;1.58;;
54121;SDS011;40029;58.708;50.190;2023-11-21T10:34:37;2.25;;;1.17;;
54121;SDS011;40029;58.708;50.190;2023-11-21T10:37:12;2.20;;;1.40;;
54121;SDS011;40029;58.708;50.190;2023-11-21T10:39:43;2.75;;;1.98;;
54121;SDS011;40029;58.708;50.190;2023-11-21T10:42:16;2.63;;;0.85;;
54121;SDS011;40029;58.708;50.190;2023-11-21T10:44:48;5.97;;;1.83;;
54121;SDS011;40029;58.708;50.190;2023-11-21T10:47:20;17.58;;;3.78;;
54121;SDS011;40029;58.708;50.190;2023-11-21T10:49:53;8.75;;;1.80;;
54121;SDS011;40029;58.708;50.190;2023-11-21T10:52:26;7.38;;;2.03;;
54121;SDS011;40029;58.708;50.190;2023-11-21T10:54:57;4.18;;;1.42;;
54121;SDS011;40029;58.708;50.190;2023-11-21T10:57:29;2.67;;;1.60;;
54121;SDS011;40029;58.708;50.190;2023-11-21T11:00:20;1.58;;;1.08;;
54121;SDS011;40029;58.708;50.190;2023-11-21T11:02:52;3.35;;;1.58;;
54121;SDS011;40029;58.708;50.190;2023-11-21T11:05:27;8.93;;;2.72;;
54121;SDS011;40029;58.708;50.190;2023-11-21T11:08:24;4.68;;;1.48;;
54121;SDS011;40029;58.708;50.190;2023-11-21T11:10:58;2.45;;;1.05;;
54121;SDS011;40029;58.708;50.190;2023-11-21T11:13:29;6.22;;;2.03;;
54121;SDS011;40029;58.708;50.190;2023-11-21T11:16:20;4.65;;;1.90;;
54121;SDS011;40029;58.708;50.190;2023-11-21T11:18:52;3.33;;;2.08;;
54121;SDS011;40029;58.708;50.190;2023-11-21T11:21:45;3.97;;;2.55;;
54121;SDS011;40029;58.708;50.190;2023-11-21T11:24:44;3.40;;;1.00;;
54121;SDS011;40029;58.708;50.190;2023-11-21T11:30:16;2.47;;;1.38;;
54121;SDS011;40029;58.708;50.190;2023-11-21T11:33:11;3.38;;;1.63;;
54121;SDS011;40029;58.708;50.190;2023-11-21T11:38:38;4.50;;;2.10;;
54121;SDS011;40029;58.708;50.190;2023-11-21T11:41:09;8.35;;;1.58;;
54121;SDS011;40029;58.708;50.190;2023-11-21T11:44:00;3.30;;;1.67;;
54121;SDS011;40029;58.708;50.190;2023-11-21T11:46:44;3.90;;;1.35;;
54121;SDS011;40029;58.708;50.190;2023-11-21T11:49:24;2.88;;;1.83;;
54121;SDS011;40029;58.708;50.190;2023-11-21T11:55:12;2.05;;;1.13;;
54121;SDS011;40029;58.708;50.190;2023-11-21T11:57:46;3.08;;;1.52;;
54121;SDS011;40029;58.708;50.190;2023-11-21T12:00:22;2.67;;;1.65;;
54121;SDS011;40029;58.708;50.190;2023-11-21T12:03:08;5.80;;;2.05;;
54121;SDS011;40029;58.708;50.190;2023-11-21T12:05:40;2.55;;;1.23;;
54121;SDS011;40029;58.708;50.190;2023-11-21T12:10:46;2.30;;;1.20;;
54121;SDS011;40029;58.708;50.190;2023-11-21T12:13:19;9.07;;;1.73;;
54121;SDS011;40029;58.708;50.190;2023-11-21T12:15:51;2.53;;;1.17;;
54121;SDS011;40029;58.708;50.190;2023-11-21T12:18:22;6.20;;;1.77;;
54121;SDS011;40029;58.708;50.190;2023-11-21T12:20:56;5.95;;;2.13;;
54121;SDS011;40029;58.708;50.190;2023-11-21T12:23:47;4.35;;;1.50;;
54121;SDS011;40029;58.708;50.190;2023-11-21T12:26:19;16.35;;;2.33;;
54121;SDS011;40029;58.708;50.190;2023-11-21T12:28:53;4.47;;;2.08;;
54121;SDS011;40029;58.708;50.190;2023-11-21T12:31:28;3.40;;;1.90;;
54121;SDS011;40029;58.708;50.190;2023-11-21T12:34:18;5.85;;;2.33;;
54121;SDS011;40029;58.708;50.190;2023-11-21T12:36:49;8.73;;;3.42;;
54121;SDS011;40029;58.708;50.190;2023-11-21T12:39:22;11.18;;;3.10;;
54121;SDS011;40029;58.708;50.190;2023-11-21T12:41:53;9.48;;;2.85;;
54121;SDS011;40029;58.708;50.190;2023-11-21T12:44:25;5.45;;;2.22;;
54121;SDS011;40029;58.708;50.190;2023-11-21T12:46:56;8.73;;;2.53;;
54121;SDS011;40029;58.708;50.190;2023-11-21T12:49:27;9.98;;;3.60;;
54121;SDS011;40029;58.708;50.190;2023-11-21T12:51:59;6.53;;;3.00;;
54121;SDS011;40029;58.708;50.190;2023-11-21T12:54:48;7.35;;;3.03;;
54121;SDS011;40029;58.708;50.190;2023-11-21T12:57:19;13.25;;;3.78;;
54121;SDS011;40029;58.708;50.190;2023-11-21T12:59:51;12.32;;;4.07;;
54121;SDS011;40029;58.708;50.190;2023-11-21T13:02:27;8.85;;;3.20;;
54121;SDS011;40029;58.708;50.190;2023-11-21T13:05:01;18.52;;;3.83;;
54121;SDS011;40029;58.708;50.190;2023-11-21T13:07:42;10.73;;;3.53;;
54121;SDS011;40029;58.708;50.190;2023-11-21T13:10:17;12.43;;;4.30;;
54121;SDS011;40029;58.708;50.190;2023-11-21T13:12:48;5.03;;;2.10;;
54121;SDS011;40029;58.708;50.190;2023-11-21T13:15:22;6.35;;;3.00;;
54121;SDS011;40029;58.708;50.190;2023-11-21T13:17:54;13.45;;;4.32;;
54121;SDS011;40029;58.708;50.190;2023-11-21T13:20:28;6.00;;;2.85;;
54121;SDS011;40029;58.708;50.190;2023-11-21T13:23:00;6.55;;;3.25;;
54121;SDS011;40029;58.708;50.190;2023-11-21T13:25:32;5.90;;;2.35;;
54121;SDS011;40029;58.708;50.190;2023-11-21T13:28:04;8.27;;;3.55;;
54121;SDS011;40029;58.708;50.190;2023-11-21T13:30:35;8.23;;;3.38;;
54121;SDS011;40029;58.708;50.190;2023-11-21T13:33:06;5.60;;;2.70;;
54121;SDS011;40029;58.708;50.190;2023-11-21T13:35:39;7.75;;;3.13;;
54121;SDS011;40029;58.708;50.190;2023-11-21T13:38:14;8.07;;;2.40;;
54121;SDS011;40029;58.708;50.190;2023-11-21T13:40:54;4.07;;;1.92;;
54121;SDS011;40029;58.708;50.190;2023-11-21T13:43:26;5.13;;;2.25;;
54121;SDS011;40029;58.708;50.190;2023-11-21T13:45:59;3.80;;;1.93;;
54121;SDS011;40029;58.708;50.190;2023-11-21T13:48:34;8.00;;;2.13;;
54121;SDS011;40029;58.708;50.190;2023-11-21T13:51:11;7.10;;;2.50;;
54121;SDS011;40029;58.708;50.190;2023-11-21T13:53:48;11.63;;;3.58;;
54121;SDS011;40029;58.708;50.190;2023-11-21T13:56:23;7.18;;;2.72;;
54121;SDS011;40029;58.708;50.190;2023-11-21T13:59:13;7.97;;;3.38;;
54121;SDS011;40029;58.708;50.190;2023-11-21T14:01:53;7.03;;;2.95;;
54121;SDS011;40029;58.708;50.190;2023-11-21T14:04:26;8.25;;;3.00;;
54121;SDS011;40029;58.708;50.190;2023-11-21T14:07:03;7.15;;;2.72;;
54121;SDS011;40029;58.708;50.190;2023-11-21T14:09:51;3.88;;;2.05;;
54121;SDS011;40029;58.708;50.190;2023-11-21T14:12:23;4.60;;;1.85;;
54121;SDS011;40029;58.708;50.190;2023-11-21T14:14:54;4.30;;;1.73;;
54121;SDS011;40029;58.708;50.190;2023-11-21T14:17:26;7.03;;;2.15;;
54121;SDS011;40029;58.708;50.190;2023-11-21T14:19:57;4.45;;;1.63;;
54121;SDS011;40029;58.708;50.190;2023-11-21T14:22:29;5.35;;;2.50;;
54121;SDS011;40029;58.708;50.190;2023-11-21T14:25:00;4.80;;;1.65;;
54121;SDS011;40029;58.708;50.190;2023-11-21T14:27:34;6.63;;;2.13;;
54121;SDS011;40029;58.708;50.190;2023-11-21T14:30:05;5.78;;;1.95;;
54121;SDS011;40029;58.708;50.190;2023-11-21T14:32:37;3.80;;;1.83;;
54121;SDS011;40029;58.708;50.190;2023-11-21T14:35:08;7.40;;;2.42;;
54121;SDS011;40029;58.708;50.190;2023-11-21T14:37:41;8.73;;;2.67;;
54121;SDS011;40029;58.708;50.190;2023-11-21T14:40:12;10.27;;;2.75;;
54121;SDS011;40029;58.708;50.190;2023-11-21T14:42:46;10.10;;;2.65;;
54121;SDS011;40029;58.708;50.190;2023-11-21T14:45:18;6.68;;;2.20;;
54121;SDS011;40029;58.708;50.190;2023-11-21T14:47:50;7.15;;;2.72;;
54121;SDS011;40029;58.708;50.190;2023-11-21T14:50:47;4.45;;;2.20;;
54121;SDS011;40029;58.708;50.190;2023-11-21T14:53:38;6.28;;;2.60;;
54121;SDS011;40029;58.708;50.190;2023-11-21T14:56:26;6.40;;;2.65;;
54121;SDS011;40029;58.708;50.190;2023-11-21T14:59:19;5.82;;;2.47;;
54121;SDS011;40029;58.708;50.190;2023-11-21T15:02:09;6.45;;;2.50;;
54121;SDS011;40029;58.708;50.190;2023-11-21T15:04:48;7.03;;;3.40;;
54121;SDS011;40029;58.708;50.190;2023-11-21T15:07:23;7.97;;;3.95;;
54121;SDS011;40029;58.708;50.190;2023-11-21T15:09:57;7.43;;;3.92;;
54121;SDS011;40029;58.708;50.190;2023-11-21T15:12:28;7.80;;;2.78;;
54121;SDS011;40029;58.708;50.190;2023-11-21T15:15:21;10.25;;;4.40;;
54121;SDS011;40029;58.708;50.190;2023-11-21T15:17:53;7.18;;;3.15;;
54121;SDS011;40029;58.708;50.190;2023-11-21T15:20:24;7.63;;;2.50;;
54121;SDS011;40029;58.708;50.190;2023-11-21T15:22:57;8.82;;;2.90;;
54121;SDS011;40029;58.708;50.190;2023-11-21T15:25:28;7.25;;;3.25;;
54121;SDS011;40029;58.708;50.190;2023-11-21T15:28:18;6.25;;;2.40;;
54121;SDS011;40029;58.708;50.190;2023-11-21T15:30:50;7.35;;;3.20;;
54121;SDS011;40029;58.708;50.190;2023-11-21T15:33:22;8.25;;;2.97;;
54121;SDS011;40029;58.708;50.190;2023-11-21T15:35:53;12.77;;;4.00;;